Time;durP1;ratioP1;P1;durP2;ratioP2;P2;SDS_P1;SDS_P2;PMS_P1;PMS_P2;Temp;Humidity;BMP_temperature;BMP_pressure;BME280_temperature;BME280_humidity;BME280_pressure;Samples;Min_cycle;Max_cycle;Signal;HPM_P1;HPM_P2
2023/08/16 00:00:09;;;;;;;6.93;6.20;;;22.10;99.90;;;;;;5093292;28;20209;-80
2023/08/16 00:02:38;;;;;;;7.53;5.80;;;21.80;99.90;;;;;;5096304;28;20208;-80
2023/08/16 00:05:06;;;;;;;8.95;6.30;;;21.80;99.90;;;;;;5087983;28;20200;-80
2023/08/16 00:07:34;;;;;;;9.02;6.00;;;21.70;99.90;;;;;;5093907;28;20223;-80
2023/08/16 00:10:02;;;;;;;8.25;6.78;;;21.80;99.90;;;;;;5093620;28;20197;-80
2023/08/16 00:12:30;;;;;;;9.20;6.53;;;21.70;99.90;;;;;;5087336;28;20198;-81
2023/08/16 00:14:58;;;;;;;7.05;6.20;;;21.50;99.90;;;;;;5095803;28;20996;-80
2023/08/16 00:17:25;;;;;;;7.55;6.40;;;21.40;99.90;;;;;;5093263;28;20275;-81
2023/08/16 00:19:52;;;;;;;6.70;5.75;;;21.60;99.90;;;;;;5094746;28;20212;-80
2023/08/16 00:22:20;;;;;;;7.93;5.10;;;21.70;99.90;;;;;;5095244;28;20208;-80
2023/08/16 00:24:47;;;;;;;7.10;5.78;;;21.70;99.90;;;;;;5104348;28;20215;-80
2023/08/16 00:27:15;;;;;;;6.35;5.35;;;21.80;99.90;;;;;;5090233;28;20189;-80
2023/08/16 00:29:47;;;;;;;7.68;6.05;;;21.80;99.90;;;;;;5091200;28;20196;-81
2023/08/16 00:32:15;;;;;;;7.38;5.53;;;21.80;99.90;;;;;;5093115;28;20194;-80
2023/08/16 00:34:42;;;;;;;9.57;5.97;;;22.00;99.90;;;;;;5096341;28;20245;-80
2023/08/16 00:37:10;;;;;;;6.43;5.55;;;22.10;99.90;;;;;;5092299;28;20206;-80
2023/08/16 00:39:39;;;;;;;7.50;6.20;;;22.10;99.90;;;;;;5091413;28;20213;-80
2023/08/16 00:42:06;;;;;;;7.78;6.63;;;22.10;99.90;;;;;;5091487;28;20216;-80
2023/08/16 00:44:35;;;;;;;8.82;6.63;;;22.00;99.90;;;;;;5094928;28;20232;-80
2023/08/16 00:47:04;;;;;;;7.85;6.63;;;22.00;99.90;;;;;;5095001;28;20201;-81
2023/08/16 00:49:33;;;;;;;8.32;6.82;;;22.00;99.90;;;;;;5091815;28;20200;-81
2023/08/16 00:52:01;;;;;;;9.55;7.00;;;22.00;99.90;;;;;;5092652;28;20660;-80
2023/08/16 00:54:29;;;;;;;6.50;5.90;;;22.00;99.90;;;;;;5092655;28;20217;-81
2023/08/16 00:56:58;;;;;;;7.38;6.68;;;21.80;99.90;;;;;;5095959;28;20205;-80
2023/08/16 00:59:27;;;;;;;6.88;5.82;;;21.70;99.90;;;;;;5091679;28;20220;-81
2023/08/16 01:01:55;;;;;;;7.78;6.72;;;21.70;99.90;;;;;;5090622;28;20220;-80
2023/08/16 01:04:24;;;;;;;6.40;5.80;;;21.60;99.90;;;;;;5095935;28;20581;-80
2023/08/16 01:06:57;;;;;;;6.78;6.03;;;21.50;99.90;;;;;;5093914;28;20196;-80
2023/08/16 01:09:26;;;;;;;6.30;5.63;;;21.50;99.90;;;;;;5089396;28;20188;-81
2023/08/16 01:12:02;;;;;;;8.30;6.97;;;21.50;99.90;;;;;;5093581;28;20197;-81
2023/08/16 01:14:37;;;;;;;6.93;5.68;;;21.60;99.90;;;;;;5093391;28;20219;-80
2023/08/16 01:17:07;;;;;;;6.50;5.95;;;21.70;99.90;;;;;;5091256;28;20200;-80
2023/08/16 01:19:37;;;;;;;6.55;5.80;;;21.50;99.90;;;;;;5094390;28;20224;-81
2023/08/16 01:22:16;;;;;;;8.05;6.05;;;21.50;99.90;;;;;;5091980;28;20196;-80
2023/08/16 01:24:56;;;;;;;7.68;5.65;;;21.50;99.90;;;;;;5094343;28;20580;-80
2023/08/16 01:27:26;;;;;;;6.22;5.57;;;21.60;99.90;;;;;;5092443;28;20204;-81
2023/08/16 01:29:53;;;;;;;6.97;6.20;;;21.70;99.90;;;;;;5093303;28;20193;-81
2023/08/16 01:32:22;;;;;;;6.85;6.07;;;21.60;99.90;;;;;;5090305;28;20200;-81
2023/08/16 01:34:50;;;;;;;6.43;5.80;;;21.60;99.90;;;;;;5093280;28;20221;-81
2023/08/16 01:37:20;;;;;;;9.25;5.85;;;21.60;99.90;;;;;;5087436;28;20204;-81
2023/08/16 01:39:51;;;;;;;7.38;5.95;;;21.60;99.90;;;;;;5090912;28;20564;-80
2023/08/16 01:42:18;;;;;;;8.05;5.97;;;21.50;99.90;;;;;;5094016;28;20204;-80
2023/08/16 01:44:49;;;;;;;8.25;6.05;;;21.40;99.90;;;;;;5094077;28;20216;-80
2023/08/16 01:47:17;;;;;;;6.15;5.50;;;21.20;99.90;;;;;;5091854;28;20197;-80
2023/08/16 01:49:46;;;;;;;6.03;5.53;;;21.20;99.90;;;;;;5093800;28;20216;-80
2023/08/16 01:52:13;;;;;;;6.50;5.90;;;21.00;99.90;;;;;;5094309;28;20673;-80
2023/08/16 01:54:41;;;;;;;9.02;6.32;;;21.10;99.90;;;;;;5088358;28;20220;-80
2023/08/16 01:57:08;;;;;;;6.90;5.55;;;21.10;99.90;;;;;;5092868;28;20189;-81
2023/08/16 01:59:36;;;;;;;7.13;5.63;;;21.00;99.90;;;;;;5093671;28;20224;-80
2023/08/16 02:02:05;;;;;;;6.60;5.95;;;21.00;99.90;;;;;;5089127;28;20205;-80
2023/08/16 02:04:32;;;;;;;6.43;5.47;;;21.00;99.90;;;;;;5093153;28;20243;-80
2023/08/16 02:07:00;;;;;;;7.40;5.60;;;21.10;99.90;;;;;;5093360;28;20204;-80
2023/08/16 02:09:27;;;;;;;6.20;5.60;;;21.00;99.90;;;;;;5087487;28;20682;-80
2023/08/16 02:11:54;;;;;;;6.68;5.85;;;21.10;99.90;;;;;;5090204;28;20208;-80
2023/08/16 02:14:22;;;;;;;7.65;5.90;;;20.80;99.90;;;;;;5088131;28;20588;-80
2023/08/16 02:16:49;;;;;;;7.40;5.78;;;20.60;99.90;;;;;;5091991;28;20200;-80
2023/08/16 02:19:18;;;;;;;11.02;5.93;;;20.50;99.90;;;;;;5084789;28;20217;-80
2023/08/16 02:21:46;;;;;;;7.60;6.60;;;20.40;99.90;;;;;;5091260;28;20593;-80
2023/08/16 02:24:13;;;;;;;6.82;6.18;;;20.40;99.90;;;;;;5089027;28;20224;-80
2023/08/16 02:26:40;;;;;;;7.47;6.50;;;20.30;99.90;;;;;;5089558;28;20236;-81
2023/08/16 02:29:08;;;;;;;7.20;6.32;;;20.30;99.90;;;;;;5088775;28;20192;-80
2023/08/16 02:31:35;;;;;;;7.88;6.13;;;20.30;99.90;;;;;;5084738;28;20193;-80
2023/08/16 02:34:03;;;;;;;7.47;6.00;;;20.30;99.90;;;;;;5081771;28;20380;-80
2023/08/16 02:36:32;;;;;;;6.65;5.13;;;20.40;99.90;;;;;;5094298;28;20205;-80
2023/08/16 02:39:00;;;;;;;9.13;5.88;;;20.40;99.90;;;;;;5087521;28;20216;-80
2023/08/16 02:41:27;;;;;;;7.90;5.57;;;20.40;99.90;;;;;;5086133;28;20209;-80
2023/08/16 02:43:55;;;;;;;7.20;6.22;;;20.60;99.90;;;;;;5090910;28;20217;-80
2023/08/16 02:46:23;;;;;;;6.85;5.68;;;20.70;99.90;;;;;;5088930;28;20212;-80
2023/08/16 02:48:51;;;;;;;7.18;5.22;;;20.80;99.90;;;;;;5083745;28;20204;-80
2023/08/16 02:51:18;;;;;;;6.70;5.70;;;20.80;99.90;;;;;;5091764;28;20193;-80
2023/08/16 02:53:47;;;;;;;7.85;6.20;;;20.70;99.90;;;;;;5085911;28;20235;-80
2023/08/16 02:56:14;;;;;;;7.22;6.53;;;20.50;99.90;;;;;;5087985;28;20189;-80
2023/08/16 02:58:42;;;;;;;8.85;5.85;;;20.20;99.90;;;;;;5091250;28;20200;-80
2023/08/16 03:01:09;;;;;;;6.30;5.70;;;20.10;99.90;;;;;;5089897;28;20204;-81
2023/08/16 03:03:37;;;;;;;9.80;6.60;;;20.00;99.90;;;;;;5088706;28;20244;-80
2023/08/16 03:06:04;;;;;;;6.65;6.03;;;20.10;99.90;;;;;;5092196;28;20643;-80
2023/08/16 03:08:32;;;;;;;6.57;5.88;;;20.20;99.90;;;;;;5091337;28;20283;-80
2023/08/16 03:11:01;;;;;;;6.47;5.85;;;20.20;99.90;;;;;;5083054;28;20197;-80
2023/08/16 03:13:28;;;;;;;5.85;5.35;;;20.20;99.90;;;;;;5093806;28;20228;-80
2023/08/16 03:15:55;;;;;;;6.13;5.63;;;20.10;99.90;;;;;;5090038;28;20710;-81
2023/08/16 03:18:23;;;;;;;6.53;5.82;;;20.00;99.90;;;;;;5088565;28;20205;-80
2023/08/16 03:20:50;;;;;;;7.65;6.53;;;20.10;99.90;;;;;;5099939;28;20212;-81
2023/08/16 03:23:18;;;;;;;6.85;5.70;;;20.10;99.90;;;;;;5089725;28;20216;-80
2023/08/16 03:25:45;;;;;;;6.22;5.63;;;20.10;99.90;;;;;;5085428;28;20203;-80
2023/08/16 03:28:14;;;;;;;7.15;6.13;;;20.00;99.90;;;;;;5092544;28;20200;-80
2023/08/16 03:30:43;;;;;;;7.65;6.63;;;20.10;99.90;;;;;;5086450;28;20193;-80
2023/08/16 03:33:10;;;;;;;7.47;6.78;;;20.10;99.90;;;;;;5093041;28;20216;-80
2023/08/16 03:35:38;;;;;;;7.00;5.40;;;20.00;99.90;;;;;;5093010;28;20609;-80
2023/08/16 03:38:05;;;;;;;7.90;5.75;;;19.90;99.90;;;;;;5096430;28;20185;-80
2023/08/16 03:40:33;;;;;;;8.80;6.45;;;20.00;99.90;;;;;;5092603;28;20212;-80
2023/08/16 03:43:00;;;;;;;6.78;5.40;;;19.90;99.90;;;;;;5088686;28;20212;-80
2023/08/16 03:45:29;;;;;;;6.75;5.82;;;20.10;99.90;;;;;;5085422;28;20198;-80
2023/08/16 03:47:57;;;;;;;6.72;6.10;;;20.20;99.90;;;;;;5082808;28;20193;-80
2023/08/16 03:50:25;;;;;;;8.05;6.28;;;19.90;99.90;;;;;;5081471;28;20471;-81
2023/08/16 03:52:52;;;;;;;7.57;6.80;;;19.80;99.90;;;;;;5086128;28;20224;-81
2023/08/16 03:55:20;;;;;;;7.95;5.63;;;19.90;99.90;;;;;;5086029;28;20200;-80
2023/08/16 03:57:47;;;;;;;6.00;5.40;;;19.90;99.90;;;;;;5090975;28;20197;-80
2023/08/16 04:00:16;;;;;;;7.38;6.30;;;20.10;99.90;;;;;;5089683;28;20411;-81
2023/08/16 04:02:44;;;;;;;7.18;6.50;;;20.10;99.90;;;;;;5098154;28;20200;-81
2023/08/16 04:05:14;;;;;;;10.00;6.78;;;20.00;99.90;;;;;;5082007;28;20554;-81
2023/08/16 04:07:42;;;;;;;6.60;5.95;;;20.10;99.90;;;;;;5085625;28;20200;-80
2023/08/16 04:10:11;;;;;;;7.90;6.05;;;20.10;99.90;;;;;;5090559;28;20205;-80
2023/08/16 04:12:38;;;;;;;8.48;6.63;;;20.20;99.90;;;;;;5084835;28;20201;-80
2023/08/16 04:15:07;;;;;;;7.07;6.47;;;20.20;99.90;;;;;;5083213;28;20189;-81
2023/08/16 04:17:48;;;;;;;7.53;6.28;;;20.20;99.90;;;;;;5084910;28;20193;-80
2023/08/16 04:20:16;;;;;;;6.80;6.10;;;20.20;99.90;;;;;;5087469;28;20200;-80
2023/08/16 04:22:43;;;;;;;7.13;6.47;;;20.20;99.90;;;;;;5092092;28;20220;-80
2023/08/16 04:25:11;;;;;;;6.43;5.80;;;20.20;99.90;;;;;;5091702;28;20713;-80
2023/08/16 04:27:39;;;;;;;6.60;6.00;;;20.30;99.90;;;;;;5083619;28;20204;-81
2023/08/16 04:30:07;;;;;;;7.45;5.90;;;20.40;99.90;;;;;;5089852;28;20576;-80
2023/08/16 04:32:35;;;;;;;7.15;6.38;;;20.40;99.90;;;;;;5093017;28;20702;-80
2023/08/16 04:35:05;;;;;;;7.55;6.32;;;20.30;99.90;;;;;;5090227;28;20208;-80
2023/08/16 04:37:51;;;;;;;8.68;6.28;;;20.40;99.90;;;;;;5080507;28;20197;-80
2023/08/16 04:40:18;;;;;;;7.00;6.43;;;20.40;99.90;;;;;;5089853;28;20204;-81
2023/08/16 04:42:46;;;;;;;7.05;6.22;;;20.30;99.90;;;;;;5082590;28;20217;-80
2023/08/16 04:45:14;;;;;;;7.55;6.35;;;20.50;99.90;;;;;;5083702;28;20201;-80
2023/08/16 04:47:41;;;;;;;7.60;6.60;;;20.40;99.90;;;;;;5093034;28;20198;-81
2023/08/16 04:50:11;;;;;;;11.13;9.82;;;20.50;99.90;;;;;;5093516;28;20211;-81
2023/08/16 04:52:38;;;;;;;9.95;7.80;;;20.60;99.90;;;;;;5085200;28;20189;-80
2023/08/16 04:55:07;;;;;;;8.98;7.57;;;20.70;99.90;;;;;;5092152;28;20193;-80
2023/08/16 04:57:36;;;;;;;7.72;6.93;;;20.70;99.90;;;;;;5094988;28;20201;-80
2023/08/16 05:00:07;;;;;;;7.93;7.20;;;20.70;99.90;;;;;;5082289;28;20693;-81
2023/08/16 05:02:38;;;;;;;8.50;7.10;;;20.70;99.90;;;;;;5110416;28;20216;-80
2023/08/16 05:05:06;;;;;;;9.35;8.15;;;20.70;99.90;;;;;;5089047;28;20654;-80
2023/08/16 05:07:38;;;;;;;8.40;7.60;;;20.40;99.90;;;;;;5093146;28;20197;-80
2023/08/16 05:10:06;;;;;;;7.85;7.05;;;20.40;99.90;;;;;;5087359;28;20205;-80
2023/08/16 05:12:35;;;;;;;9.18;7.20;;;20.30;99.90;;;;;;5089713;28;20193;-80
2023/08/16 05:15:03;;;;;;;6.55;5.35;;;20.40;99.90;;;;;;5093063;28;20193;-80
2023/08/16 05:17:32;;;;;;;11.18;6.82;;;20.70;99.90;;;;;;5086449;28;20208;-80
2023/08/16 05:20:00;;;;;;;10.63;6.70;;;20.90;99.90;;;;;;5087586;28;20209;-80
2023/08/16 05:22:27;;;;;;;10.23;6.97;;;21.10;99.90;;;;;;5085946;28;20248;-79
2023/08/16 05:25:20;;;;;;;8.80;6.72;;;21.00;99.90;;;;;;5089364;28;20548;-80
2023/08/16 05:27:58;;;;;;;9.75;7.53;;;21.10;99.90;;;;;;5089781;28;20205;-79
2023/08/16 05:30:35;;;;;;;8.82;7.15;;;21.00;99.90;;;;;;5094344;28;20205;-80
2023/08/16 05:33:03;;;;;;;8.95;7.18;;;20.60;99.90;;;;;;5092436;28;20217;-80
2023/08/16 05:35:33;;;;;;;11.50;6.97;;;20.50;99.90;;;;;;5092793;28;20216;-80
2023/08/16 05:38:00;;;;;;;7.25;6.55;;;20.50;99.90;;;;;;5086954;28;20201;-80
2023/08/16 05:40:32;;;;;;;8.27;6.47;;;20.30;99.90;;;;;;5092103;28;20567;-80
2023/08/16 05:43:00;;;;;;;7.25;5.47;;;20.30;99.90;;;;;;5085280;28;20221;-80
2023/08/16 05:45:28;;;;;;;10.35;6.00;;;20.50;99.90;;;;;;5109681;28;20208;-80
2023/08/16 05:47:55;;;;;;;10.20;5.72;;;20.80;99.90;;;;;;5093369;28;20201;-80
2023/08/16 05:50:54;;;;;;;9.82;6.47;;;20.70;99.90;;;;;;5092627;28;20204;-80
2023/08/16 05:53:21;;;;;;;9.07;5.80;;;20.70;99.90;;;;;;5084788;28;20228;-82
2023/08/16 05:55:50;;;;;;;9.05;6.00;;;20.70;99.90;;;;;;5089194;28;20212;-82
2023/08/16 05:58:18;;;;;;;8.65;6.47;;;20.60;99.90;;;;;;5095619;28;20205;-82
2023/08/16 06:00:47;;;;;;;7.30;5.97;;;20.50;99.90;;;;;;5094815;28;20213;-82
2023/08/16 06:03:14;;;;;;;11.98;8.48;;;20.40;99.90;;;;;;5094568;28;20223;-82
2023/08/16 06:05:42;;;;;;;7.32;6.60;;;20.40;99.90;;;;;;5093587;28;20985;-83
2023/08/16 06:08:09;;;;;;;10.65;7.22;;;20.40;99.90;;;;;;5093583;28;20208;-81
2023/08/16 06:10:44;;;;;;;10.63;8.45;;;20.40;99.90;;;;;;5091309;28;20209;-81
2023/08/16 06:13:13;;;;;;;11.48;8.23;;;20.50;99.90;;;;;;5088781;28;20714;-81
2023/08/16 06:15:40;;;;;;;12.10;8.85;;;20.50;99.90;;;;;;5094332;28;20201;-81
2023/08/16 06:18:08;;;;;;;9.85;8.13;;;20.80;99.90;;;;;;5093567;28;20208;-81
2023/08/16 06:20:35;;;;;;;12.07;8.75;;;20.80;99.90;;;;;;5092298;28;20217;-84
2023/08/16 06:23:03;;;;;;;15.13;11.88;;;20.80;99.90;;;;;;5095404;28;20220;-81
2023/08/16 06:25:30;;;;;;;9.00;8.10;;;21.00;99.90;;;;;;5096553;28;20687;-81
2023/08/16 06:27:59;;;;;;;9.18;7.57;;;20.70;99.90;;;;;;5093051;28;20209;-82
2023/08/16 06:30:33;;;;;;;15.68;11.65;;;20.70;99.90;;;;;;5096817;28;20204;-81
2023/08/16 06:33:00;;;;;;;15.85;12.40;;;21.10;99.90;;;;;;5091662;28;20231;-81
2023/08/16 06:35:29;;;;;;;13.73;9.63;;;21.40;99.90;;;;;;5094661;28;20684;-80
2023/08/16 06:37:57;;;;;;;12.48;9.32;;;21.50;99.90;;;;;;5087559;28;20208;-83
2023/08/16 06:40:25;;;;;;;11.98;8.20;;;21.60;99.90;;;;;;5104526;27;20208;-83
2023/08/16 06:42:52;;;;;;;12.57;8.00;;;21.60;99.90;;;;;;5090631;28;20214;-83
2023/08/16 06:45:20;;;;;;;14.23;8.98;;;21.50;99.90;;;;;;5090220;28;20201;-84
2023/08/16 06:47:49;;;;;;;16.52;8.38;;;21.50;99.90;;;;;;5093236;22;20228;-81
2023/08/16 06:50:16;;;;;;;8.70;6.63;;;21.50;99.90;;;;;;5076508;28;20204;-81
2023/08/16 06:52:44;;;;;;;9.60;6.95;;;21.40;99.90;;;;;;5079605;28;20196;-81
2023/08/16 06:55:11;;;;;;;9.48;6.75;;;21.40;99.90;;;;;;5079370;28;20205;-81
2023/08/16 06:57:39;;;;;;;7.68;5.75;;;21.50;99.90;;;;;;5095640;28;20221;-81
2023/08/16 07:00:08;;;;;;;5.82;4.93;;;21.60;99.90;;;;;;5058996;28;20213;-81
2023/08/16 07:02:35;;;;;;;6.50;4.85;;;21.50;99.90;;;;;;5061499;28;20214;-81
2023/08/16 07:05:05;;;;;;;5.45;4.95;;;21.50;99.90;;;;;;5062693;28;20190;-81
2023/08/16 07:07:32;;;;;;;4.60;4.30;;;21.40;99.90;;;;;;5060007;28;20204;-82
2023/08/16 07:10:00;;;;;;;7.25;4.85;;;21.30;99.90;;;;;;5057255;28;20197;-81
2023/08/16 07:12:27;;;;;;;7.03;4.70;;;21.30;99.90;;;;;;5059621;28;20647;-81
2023/08/16 07:14:55;;;;;;;5.65;4.57;;;21.20;99.90;;;;;;5064605;28;20197;-80
2023/08/16 07:17:22;;;;;;;7.20;5.00;;;21.10;99.90;;;;;;5067133;28;20201;-81
2023/08/16 07:19:52;;;;;;;6.32;4.38;;;21.30;99.90;;;;;;5054777;28;20198;-81
2023/08/16 07:22:24;;;;;;;5.25;4.32;;;21.20;99.90;;;;;;5079302;28;20208;-81
2023/08/16 07:24:51;;;;;;;4.70;3.85;;;21.20;99.90;;;;;;5056007;28;20201;-81
2023/08/16 07:27:19;;;;;;;5.72;4.57;;;21.40;99.90;;;;;;5065820;28;20205;-82
2023/08/16 07:29:48;;;;;;;6.78;4.57;;;21.50;99.90;;;;;;5077635;28;20189;-81
2023/08/16 07:32:15;;;;;;;4.53;3.75;;;21.60;99.90;;;;;;5066863;28;20189;-80
2023/08/16 07:34:43;;;;;;;5.70;4.40;;;21.80;99.90;;;;;;5075277;28;20565;-81
2023/08/16 07:37:13;;;;;;;4.18;3.78;;;21.70;99.90;;;;;;5065586;28;20196;-81
2023/08/16 07:39:42;;;;;;;4.85;3.88;;;21.60;99.90;;;;;;5059113;28;20226;-82
2023/08/16 07:42:09;;;;;;;4.90;3.92;;;21.80;99.90;;;;;;5060543;28;20205;-79
2023/08/16 07:44:37;;;;;;;4.20;3.80;;;21.90;99.90;;;;;;5056825;28;20208;-82
2023/08/16 07:47:05;;;;;;;4.72;3.85;;;21.80;99.90;;;;;;5070591;28;20279;-82
2023/08/16 07:49:33;;;;;;;4.97;4.35;;;21.90;99.90;;;;;;5064598;28;20240;-81
2023/08/16 07:52:00;;;;;;;5.53;4.80;;;21.90;99.90;;;;;;5052984;28;20202;-80
2023/08/16 07:54:28;;;;;;;7.03;4.10;;;22.00;99.90;;;;;;5050180;28;20717;-81
2023/08/16 07:56:56;;;;;;;4.85;3.75;;;22.00;99.90;;;;;;5057030;28;20197;-81
2023/08/16 07:59:24;;;;;;;4.80;4.10;;;22.10;99.90;;;;;;5053383;28;20225;-79
2023/08/16 08:01:52;;;;;;;7.00;4.35;;;22.10;99.90;;;;;;5069932;28;20224;-80
2023/08/16 08:04:20;;;;;;;5.97;4.53;;;22.20;99.90;;;;;;5079697;28;20208;-80
2023/08/16 08:06:50;;;;;;;8.93;5.43;;;22.20;99.90;;;;;;5064039;28;20201;-79
2023/08/16 08:09:17;;;;;;;6.22;4.85;;;22.20;99.90;;;;;;5075344;28;20221;-81
2023/08/16 08:11:45;;;;;;;6.97;4.28;;;22.30;99.90;;;;;;5059793;28;20201;-80
2023/08/16 08:14:18;;;;;;;6.05;3.95;;;22.30;99.90;;;;;;5061684;28;20749;-81
2023/08/16 08:16:46;;;;;;;4.28;3.85;;;22.50;99.90;;;;;;5066025;28;20205;-82
2023/08/16 08:19:13;;;;;;;5.00;4.10;;;22.30;99.90;;;;;;5065534;28;20222;-81
2023/08/16 08:21:41;;;;;;;5.57;4.25;;;22.30;99.90;;;;;;5060809;28;20209;-80
2023/08/16 08:24:08;;;;;;;6.18;4.85;;;22.30;99.90;;;;;;5068709;28;20220;-81
2023/08/16 08:26:36;;;;;;;5.93;5.32;;;22.10;99.90;;;;;;5057286;28;20211;-81
2023/08/16 08:29:11;;;;;;;5.05;4.55;;;22.20;99.90;;;;;;5071536;28;20221;-81
2023/08/16 08:31:40;;;;;;;5.72;3.63;;;22.20;99.90;;;;;;5054586;28;20539;-82
2023/08/16 08:34:08;;;;;;;5.13;3.20;;;22.20;99.90;;;;;;5093022;28;20184;-81
2023/08/16 08:36:35;;;;;;;12.98;7.13;;;22.00;99.90;;;;;;5058981;28;20560;-82
2023/08/16 08:39:03;;;;;;;26.30;11.25;;;22.20;99.90;;;;;;5066534;28;20220;-82
2023/08/16 08:41:32;;;;;;;4.97;4.32;;;22.10;99.90;;;;;;5065320;28;20202;-82
2023/08/16 08:44:00;;;;;;;16.20;7.03;;;22.10;99.90;;;;;;5062852;28;20213;-84
2023/08/16 08:46:30;;;;;;;9.52;5.13;;;22.10;99.90;;;;;;5062984;28;20202;-83
2023/08/16 08:49:01;;;;;;;5.68;4.53;;;22.30;99.90;;;;;;5068573;28;20225;-85
2023/08/16 08:51:30;;;;;;;5.85;3.92;;;22.50;99.90;;;;;;5080763;28;20208;-84
2023/08/16 08:53:58;;;;;;;4.78;3.75;;;22.60;99.90;;;;;;5064049;28;20208;-84
2023/08/16 08:56:28;;;;;;;4.65;3.72;;;22.60;99.90;;;;;;5063088;28;20206;-84
2023/08/16 08:58:56;;;;;;;4.63;4.18;;;22.50;99.90;;;;;;5058846;28;20217;-81
2023/08/16 09:01:25;;;;;;;4.63;4.15;;;22.60;99.90;;;;;;5068659;28;20209;-80
2023/08/16 09:03:54;;;;;;;5.35;4.85;;;22.60;99.90;;;;;;5081206;28;20209;-81
2023/08/16 09:06:23;;;;;;;7.07;5.10;;;22.60;99.90;;;;;;5056401;28;20198;-81
2023/08/16 09:08:51;;;;;;;6.78;5.30;;;22.50;99.90;;;;;;5058942;28;20222;-77
2023/08/16 09:11:20;;;;;;;6.32;5.18;;;22.50;99.90;;;;;;5052214;28;20202;-79
2023/08/16 09:13:49;;;;;;;8.57;6.07;;;22.50;99.90;;;;;;5054451;28;20190;-76
2023/08/16 09:16:16;;;;;;;7.50;5.85;;;22.50;99.90;;;;;;5054766;28;20209;-76
2023/08/16 09:18:47;;;;;;;7.40;6.63;;;22.50;99.90;;;;;;5051817;28;20882;-76
2023/08/16 09:21:18;;;;;;;6.95;6.25;;;22.40;99.90;;;;;;5074069;28;20186;-76
2023/08/16 09:23:56;;;;;;;8.50;7.60;;;22.10;99.90;;;;;;5082572;28;20213;-76
2023/08/16 09:26:32;;;;;;;8.93;6.97;;;22.10;99.90;;;;;;5060770;28;20198;-76
2023/08/16 09:28:59;;;;;;;8.18;7.43;;;22.10;99.90;;;;;;5070030;28;20578;-76
2023/08/16 09:31:51;;;;;;;8.18;7.47;;;21.70;99.90;;;;;;5064104;28;20200;-76
2023/08/16 09:34:20;;;;;;;8.27;7.50;;;21.80;99.90;;;;;;5050979;28;20205;-76
2023/08/16 09:36:48;;;;;;;8.52;7.57;;;21.70;99.90;;;;;;5053058;28;20205;-76
2023/08/16 09:39:27;;;;;;;9.38;7.45;;;21.80;99.90;;;;;;5056146;28;20214;-76
2023/08/16 09:41:55;;;;;;;9.65;8.65;;;21.70;99.90;;;;;;5062016;28;20203;-76
2023/08/16 09:44:29;;;;;;;9.55;8.52;;;21.70;99.90;;;;;;5049321;28;20229;-76
2023/08/16 09:47:00;;;;;;;9.50;8.50;;;21.80;99.90;;;;;;5053712;28;20232;-76
2023/08/16 09:49:33;;;;;;;8.40;7.60;;;21.80;99.90;;;;;;5049995;28;20594;-76
2023/08/16 09:52:00;;;;;;;9.50;8.50;;;21.80;99.90;;;;;;5070414;28;20202;-76
2023/08/16 09:54:32;;;;;;;8.32;7.45;;;21.60;99.90;;;;;;5046412;28;20573;-76
2023/08/16 09:57:00;;;;;;;9.80;8.13;;;21.80;99.90;;;;;;5066856;28;20540;-77
2023/08/16 09:59:29;;;;;;;9.75;7.95;;;21.80;99.90;;;;;;5045704;28;20229;-76
2023/08/16 10:01:57;;;;;;;12.68;9.50;;;21.80;99.90;;;;;;5046055;28;20672;-76
2023/08/16 10:04:25;;;;;;;14.48;12.00;;;21.90;99.90;;;;;;5052169;28;20218;-76
2023/08/16 10:06:54;;;;;;;16.98;14.30;;;21.70;99.90;;;;;;5053548;28;20200;-77
2023/08/16 10:09:22;;;;;;;19.95;13.93;;;21.70;99.90;;;;;;5051971;28;20577;-76
2023/08/16 10:11:52;;;;;;;18.17;15.13;;;21.70;99.90;;;;;;5071983;28;20200;-76
2023/08/16 10:14:20;;;;;;;17.63;13.60;;;21.90;99.90;;;;;;5046044;28;20686;-76
2023/08/16 10:16:58;;;;;;;18.83;14.52;;;22.00;99.90;;;;;;5043937;28;20224;-76
2023/08/16 10:19:59;;;;;;;19.55;13.70;;;22.20;99.90;;;;;;5054437;28;20686;-76
2023/08/16 10:22:33;;;;;;;19.88;15.30;;;22.30;99.90;;;;;;5057022;28;20227;-76
2023/08/16 10:25:06;;;;;;;15.90;14.05;;;22.10;99.90;;;;;;5052079;28;20212;-76
2023/08/16 10:27:38;;;;;;;20.45;16.45;;;22.00;99.90;;;;;;5053005;28;20201;-77
2023/08/16 10:30:13;;;;;;;19.55;15.35;;;21.60;99.90;;;;;;5046415;28;20202;-76
2023/08/16 10:33:10;;;;;;;21.60;13.98;;;21.80;99.90;;;;;;5059639;28;20213;-76
2023/08/16 10:35:50;;;;;;;17.50;15.05;;;22.00;99.90;;;;;;5063330;28;20220;-76
2023/08/16 10:38:20;;;;;;;16.77;14.35;;;22.00;99.90;;;;;;5047037;28;20225;-76
2023/08/16 10:40:57;;;;;;;20.25;15.23;;;22.20;99.90;;;;;;5049712;28;20209;-78
2023/08/16 10:43:47;;;;;;;17.52;12.88;;;22.20;99.90;;;;;;5060988;28;20205;-76
2023/08/16 10:46:39;;;;;;;15.38;10.88;;;22.10;99.90;;;;;;5042304;28;20209;-76
2023/08/16 10:49:08;;;;;;;15.18;11.85;;;22.10;99.90;;;;;;5069085;28;20225;-76
2023/08/16 10:51:44;;;;;;;14.45;11.20;;;22.20;99.90;;;;;;5051442;28;20201;-77
2023/08/16 10:54:11;;;;;;;14.48;10.65;;;22.30;99.90;;;;;;5052369;28;20197;-77
2023/08/16 10:56:44;;;;;;;10.98;9.73;;;22.00;99.90;;;;;;5042510;28;20691;-77
2023/08/16 11:02:33;;;;;;;9.40;8.07;;;21.80;99.90;;;;;;5052315;28;20705;-76
2023/08/16 11:05:01;;;;;;;9.38;8.27;;;22.10;99.90;;;;;;5047841;28;20214;-77
2023/08/16 11:07:29;;;;;;;10.55;8.82;;;22.20;99.90;;;;;;5045541;28;20209;-77
2023/08/16 11:09:59;;;;;;;11.73;9.15;;;22.20;99.90;;;;;;5048093;28;20202;-77
2023/08/16 11:12:31;;;;;;;11.07;7.82;;;22.20;99.90;;;;;;5049079;28;20538;-77
2023/08/16 11:14:58;;;;;;;9.20;8.30;;;22.20;99.90;;;;;;5049051;28;20202;-77
2023/08/16 11:17:27;;;;;;;10.02;8.90;;;22.00;99.90;;;;;;5064803;28;20208;-77
2023/08/16 11:19:56;;;;;;;8.10;7.18;;;22.10;99.90;;;;;;5046185;28;20220;-78
2023/08/16 11:22:25;;;;;;;8.32;7.35;;;22.30;99.90;;;;;;5046523;28;20217;-78
2023/08/16 11:24:53;;;;;;;7.60;6.60;;;22.20;99.90;;;;;;5068114;28;20217;-78
2023/08/16 11:27:21;;;;;;;8.68;7.15;;;22.30;99.90;;;;;;5048150;28;20214;-77
2023/08/16 11:29:49;;;;;;;7.88;6.97;;;22.30;99.90;;;;;;5048601;28;20217;-78
2023/08/16 11:32:17;;;;;;;10.32;6.80;;;22.30;99.90;;;;;;5052083;28;20213;-78
2023/08/16 11:34:45;;;;;;;9.70;7.97;;;22.40;99.90;;;;;;5064968;28;20189;-78
2023/08/16 11:37:20;;;;;;;9.00;6.78;;;22.30;99.90;;;;;;5045705;28;20201;-77
2023/08/16 11:39:57;;;;;;;7.68;6.93;;;22.30;99.90;;;;;;5048143;28;20216;-78
2023/08/16 11:42:26;;;;;;;11.27;7.82;;;22.40;99.90;;;;;;5049898;28;20534;-78
2023/08/16 11:44:54;;;;;;;10.32;7.60;;;22.40;99.90;;;;;;5050178;28;20237;-77
2023/08/16 11:47:21;;;;;;;8.95;7.47;;;22.50;99.90;;;;;;5049637;28;20204;-77
2023/08/16 11:49:50;;;;;;;7.47;6.78;;;22.50;99.90;;;;;;5064195;28;20189;-77
2023/08/16 11:52:23;;;;;;;7.05;6.35;;;22.40;99.90;;;;;;5067941;28;20205;-77
2023/08/16 11:55:01;;;;;;;10.07;7.28;;;22.50;99.90;;;;;;5073166;28;20789;-78
2023/08/16 11:57:29;;;;;;;8.32;7.10;;;22.60;99.90;;;;;;5053937;28;20213;-78
2023/08/16 11:59:57;;;;;;;9.93;6.70;;;22.70;99.90;;;;;;5067066;28;20213;-78
2023/08/16 12:02:25;;;;;;;8.55;7.10;;;22.60;99.90;;;;;;5051375;28;20205;-77
2023/08/16 12:04:53;;;;;;;8.35;6.78;;;22.70;99.90;;;;;;5077656;28;20209;-77
2023/08/16 12:07:21;;;;;;;8.15;6.68;;;22.70;99.90;;;;;;5052984;28;20204;-77
2023/08/16 12:09:50;;;;;;;7.10;5.70;;;22.80;99.90;;;;;;5056268;28;20198;-77
2023/08/16 12:12:17;;;;;;;9.82;6.90;;;22.90;99.90;;;;;;5056497;28;20197;-77
2023/08/16 12:14:44;;;;;;;11.05;7.47;;;22.70;99.90;;;;;;5051481;28;20201;-77
2023/08/16 12:17:12;;;;;;;9.65;7.68;;;22.50;99.90;;;;;;5047170;28;20699;-77
2023/08/16 12:19:39;;;;;;;8.63;7.00;;;22.50;99.90;;;;;;5052945;28;20226;-77
2023/08/16 12:22:07;;;;;;;9.30;6.75;;;22.70;99.90;;;;;;5055518;28;20687;-78
2023/08/16 12:24:36;;;;;;;8.70;6.70;;;22.90;99.90;;;;;;5050233;28;20221;-78
2023/08/16 12:27:03;;;;;;;8.35;7.10;;;23.00;99.90;;;;;;5048552;28;20690;-77
2023/08/16 12:29:31;;;;;;;7.38;6.68;;;23.00;99.90;;;;;;5051206;28;20225;-77
2023/08/16 12:31:58;;;;;;;12.27;6.97;;;23.00;99.90;;;;;;5053783;28;20204;-77
2023/08/16 12:34:26;;;;;;;10.07;6.03;;;22.80;99.90;;;;;;5052773;28;20236;-76
2023/08/16 12:36:53;;;;;;;10.00;6.53;;;22.90;99.90;;;;;;5052943;28;20206;-77
2023/08/16 12:39:20;;;;;;;7.35;5.65;;;22.90;99.90;;;;;;5051635;28;20222;-77
2023/08/16 12:41:49;;;;;;;6.25;5.63;;;23.00;99.90;;;;;;5062008;28;20205;-77
2023/08/16 12:44:16;;;;;;;8.15;5.82;;;23.00;99.90;;;;;;5062675;28;20202;-77
2023/08/16 12:46:44;;;;;;;6.55;5.80;;;23.00;99.90;;;;;;5051857;28;20270;-77
2023/08/16 12:49:11;;;;;;;7.75;5.70;;;23.10;99.90;;;;;;5060469;28;20240;-77
2023/08/16 12:51:42;;;;;;;6.60;5.70;;;23.00;99.90;;;;;;5053801;28;20209;-77
2023/08/16 12:54:09;;;;;;;8.48;6.18;;;23.10;99.90;;;;;;5073292;28;20194;-77
2023/08/16 12:56:37;;;;;;;7.70;5.70;;;23.10;99.90;;;;;;5051426;28;20540;-77